Time;durP1;ratioP1;P1;durP2;ratioP2;P2;SDS_P1;SDS_P2;PMS_P1;PMS_P2;Temp;Humidity;BMP_temperature;BMP_pressure;BME280_temperature;BME280_humidity;BME280_pressure;Samples;Min_cycle;Max_cycle;Signal;HPM_P1;HPM_P2
2023/09/30 00:00:48;;;;;;;;;;;;;;;11.25;100.00;102358.13;4954233;28;19934;-87
2023/09/30 00:03:33;;;;;;;;;;;;;;;11.25;100.00;102359.88;4968434;28;20017;-86
2023/09/30 00:06:19;;;;;;;;;;;;;;;11.25;100.00;102363.41;4954689;28;19930;-87
2023/09/30 00:09:05;;;;;;;;;;;;;;;11.30;100.00;102343.84;4956807;28;19942;-88
2023/09/30 00:11:51;;;;;;;;;;;;;;;11.34;100.00;102340.22;4954223;28;20016;-86
2023/09/30 00:14:37;;;;;;;;;;;;;;;11.36;100.00;102338.41;4955578;28;20392;-86
2023/09/30 00:17:23;;;;;;;;;;;;;;;11.36;100.00;102334.00;4942403;28;19929;-86
2023/09/30 00:20:09;;;;;;;;;;;;;;;11.40;100.00;102332.97;4957928;28;19933;-87
2023/09/30 00:22:55;;;;;;;;;;;;;;;11.43;100.00;102341.78;4968460;28;19981;-87
2023/09/30 00:25:44;;;;;;;;;;;;;;;11.47;100.00;102340.78;4969029;28;19933;-87
2023/09/30 00:28:29;;;;;;;;;;;;;;;11.51;100.00;102340.66;4944496;28;19918;-87
2023/09/30 00:31:15;;;;;;;;;;;;;;;11.54;100.00;102337.06;4941145;28;20032;-87
2023/09/30 00:34:00;;;;;;;;;;;;;;;11.58;100.00;102340.50;4954894;28;19999;-87
2023/09/30 00:36:47;;;;;;;;;;;;;;;11.60;100.00;102346.66;4967054;28;19934;-88
2023/09/30 00:39:33;;;;;;;;;;;;;;;11.62;100.00;102361.63;4956223;28;19930;-87
2023/09/30 00:42:20;;;;;;;;;;;;;;;11.63;100.00;102358.06;4955648;28;20054;-86
2023/09/30 00:45:06;;;;;;;;;;;;;;;11.67;100.00;102365.00;4972054;28;20415;-87
2023/09/30 00:47:52;;;;;;;;;;;;;;;11.70;100.00;102376.47;4968330;28;19929;-88
2023/09/30 00:50:37;;;;;;;;;;;;;;;11.70;100.00;102380.00;4957553;28;20300;-87
2023/09/30 00:53:23;;;;;;;;;;;;;;;11.74;100.00;102384.31;4974664;28;20392;-86
2023/09/30 00:56:09;;;;;;;;;;;;;;;11.80;100.00;102385.94;4958566;28;20593;-88
2023/09/30 00:58:54;;;;;;;;;;;;;;;11.85;100.00;102385.81;4957677;28;19934;-87
2023/09/30 01:01:43;;;;;;;;;;;;;;;11.89;100.00;102391.00;4964505;28;20308;-87
2023/09/30 01:04:29;;;;;;;;;;;;;;;11.94;100.00;102389.09;4966856;28;20915;-87
2023/09/30 01:07:15;;;;;;;;;;;;;;;12.00;100.00;102404.00;4957413;28;20356;-87
2023/09/30 01:10:01;;;;;;;;;;;;;;;12.07;100.00;102395.00;4975896;28;19976;-88
2023/09/30 01:12:46;;;;;;;;;;;;;;;12.14;100.00;102395.69;4960859;28;19965;-86
2023/09/30 01:15:32;;;;;;;;;;;;;;;12.19;100.00;102398.19;4977822;28;19933;-87
2023/09/30 01:18:18;;;;;;;;;;;;;;;12.24;100.00;102401.59;4977284;28;19925;-88
2023/09/30 01:21:05;;;;;;;;;;;;;;;12.27;100.00;102390.91;4966284;28;20301;-87
2023/09/30 01:23:54;;;;;;;;;;;;;;;12.29;100.00;102391.72;4980468;28;19984;-87
2023/09/30 01:27:01;;;;;;;;;;;;;;;12.30;100.00;102380.19;4963059;28;19933;-87
2023/09/30 01:29:47;;;;;;;;;;;;;;;12.31;100.00;102386.38;4967415;28;19944;-87
2023/09/30 01:32:36;;;;;;;;;;;;;;;12.32;100.00;102383.66;4966634;28;19933;-86
2023/09/30 01:35:22;;;;;;;;;;;;;;;12.35;100.00;102383.59;4964806;28;19925;-86
2023/09/30 01:38:07;;;;;;;;;;;;;;;12.36;100.00;102390.66;5037974;23;19934;-88
2023/09/30 01:43:44;;;;;;;;;;;;;;;12.41;100.00;102376.38;5069415;22;19983;-90
2023/09/30 01:46:30;;;;;;;;;;;;;;;12.44;100.00;102381.59;4984322;28;19952;-86
2023/09/30 01:49:18;;;;;;;;;;;;;;;12.45;100.00;102376.25;4974411;28;19925;-90
2023/09/30 01:52:04;;;;;;;;;;;;;;;12.47;100.00;102381.47;4982286;28;20435;-89
2023/09/30 01:54:49;;;;;;;;;;;;;;;12.47;100.00;102377.06;4988962;28;19976;-89
2023/09/30 01:57:35;;;;;;;;;;;;;;;12.48;100.00;102378.78;4978234;28;19959;-87
2023/09/30 02:00:21;;;;;;;;;;;;;;;12.47;100.00;102382.38;4987385;28;20459;-87
2023/09/30 02:03:07;;;;;;;;;;;;;;;12.46;100.00;102385.94;4970952;28;20223;-87
2023/09/30 02:05:52;;;;;;;;;;;;;;;12.45;100.00;102393.94;4983636;28;20067;-86
2023/09/30 02:08:38;;;;;;;;;;;;;;;12.47;100.00;102394.75;4985719;28;20045;-87
2023/09/30 02:11:23;;;;;;;;;;;;;;;12.48;100.00;102391.22;4972786;28;19933;-86
2023/09/30 02:14:11;;;;;;;;;;;;;;;12.50;100.00;102392.03;4973264;28;19929;-86
2023/09/30 02:16:57;;;;;;;;;;;;;;;12.49;100.00;102395.63;4985413;28;19996;-87
2023/09/30 02:19:46;;;;;;;;;;;;;;;12.51;100.00;102388.47;4984336;28;19939;-88
2023/09/30 02:22:33;;;;;;;;;;;;;;;12.53;100.00;102397.25;4986926;28;20384;-87
2023/09/30 02:25:18;;;;;;;;;;;;;;;12.55;100.00;102399.88;4975968;28;19922;-89
2023/09/30 02:28:04;;;;;;;;;;;;;;;12.56;100.00;102394.53;4965439;28;20594;-87
2023/09/30 02:30:50;;;;;;;;;;;;;;;12.57;100.00;102387.41;4972084;28;19933;-86
2023/09/30 02:33:37;;;;;;;;;;;;;;;12.56;100.00;102389.22;4981396;28;19930;-86
2023/09/30 02:36:22;;;;;;;;;;;;;;;12.55;100.00;102390.13;4974600;28;19922;-88
2023/09/30 02:39:11;;;;;;;;;;;;;;;12.54;100.00;102393.69;4987397;28;19956;-87
2023/09/30 02:41:57;;;;;;;;;;;;;;;12.52;100.00;102392.84;4978706;28;21579;-87
2023/09/30 02:44:42;;;;;;;;;;;;;;;12.50;100.00;102392.03;4973195;28;19928;-86
2023/09/30 02:47:28;;;;;;;;;;;;;;;12.48;100.00;102383.25;4991215;28;19940;-86
2023/09/30 02:50:14;;;;;;;;;;;;;;;12.45;100.00;102378.91;4962845;28;19929;-87
2023/09/30 02:52:59;;;;;;;;;;;;;;;12.42;100.00;102368.34;4974448;28;20020;-86
2023/09/30 02:55:45;;;;;;;;;;;;;;;12.40;100.00;102372.84;4976813;28;19972;-87
2023/09/30 02:58:31;;;;;;;;;;;;;;;12.38;100.00;102374.69;4989091;28;19922;-87
2023/09/30 03:01:16;;;;;;;;;;;;;;;12.36;100.00;102385.34;4975605;28;19934;-89
2023/09/30 03:04:03;;;;;;;;;;;;;;;12.34;100.00;102386.28;4974412;28;20007;-90
2023/09/30 03:06:51;;;;;;;;;;;;;;;12.31;100.00;102387.25;4965430;28;19933;-86
2023/09/30 03:09:37;;;;;;;;;;;;;;;12.30;100.00;102379.31;4977642;28;19941;-87
2023/09/30 03:12:22;;;;;;;;;;;;;;;12.28;100.00;102370.53;4987923;28;20001;-86
2023/09/30 03:15:09;;;;;;;;;;;;;;;12.26;100.00;102372.38;4988253;28;20003;-88
2023/09/30 03:17:55;;;;;;;;;;;;;;;12.24;100.00;102375.06;4976590;28;19930;-89
2023/09/30 03:20:43;;;;;;;;;;;;;;;12.20;100.00;102373.41;4975105;28;19940;-87
2023/09/30 03:23:31;;;;;;;;;;;;;;;12.18;100.00;102391.16;4983511;28;20338;-88
2023/09/30 03:26:17;;;;;;;;;;;;;;;12.16;100.00;102398.31;4975384;28;19937;-89
2023/09/30 03:29:05;;;;;;;;;;;;;;;12.14;100.00;102393.03;4988778;28;19934;-88
2023/09/30 03:31:52;;;;;;;;;;;;;;;12.13;100.00;102383.31;4968760;28;20024;-83
2023/09/30 03:34:37;;;;;;;;;;;;;;;12.14;100.00;102392.16;4990866;28;19929;-89
2023/09/30 03:37:24;;;;;;;;;;;;;;;12.11;100.00;102386.94;5144759;23;19950;-89
2023/09/30 03:40:14;;;;;;;;;;;;;;;12.09;100.00;102390.50;4934997;28;19930;-88
2023/09/30 03:43:00;;;;;;;;;;;;;;;12.09;100.00;102392.28;4917185;28;21081;-88
2023/09/30 03:45:46;;;;;;;;;;;;;;;12.07;100.00;102394.09;4927298;28;20026;-89
2023/09/30 03:48:32;;;;;;;;;;;;;;;12.06;100.00;102387.94;4927227;28;19966;-88
2023/09/30 03:51:18;;;;;;;;;;;;;;;12.05;100.00;102391.47;4907184;28;19934;-89
2023/09/30 03:54:03;;;;;;;;;;;;;;;12.05;100.00;102395.94;4920167;28;19926;-89
2023/09/30 03:56:49;;;;;;;;;;;;;;;12.02;100.00;102388.91;4932474;28;20612;-91
2023/09/30 03:59:35;;;;;;;;;;;;;;;12.02;100.00;102388.00;4931491;28;19935;-90
2023/09/30 04:02:21;;;;;;;;;;;;;;;12.01;100.00;102386.28;4916512;28;19938;-90
2023/09/30 04:05:07;;;;;;;;;;;;;;;12.00;100.00;102382.75;4915160;29;19926;-89
2023/09/30 04:07:52;;;;;;;;;;;;;;;11.99;100.00;102373.03;4934565;29;20488;-89
2023/09/30 04:10:38;;;;;;;;;;;;;;;11.99;100.00;102372.19;4917637;29;19935;-90
2023/09/30 04:13:24;;;;;;;;;;;;;;;11.99;100.00;102367.72;4910272;29;19926;-88
2023/09/30 04:16:10;;;;;;;;;;;;;;;11.98;100.00;102379.25;4918287;29;20433;-88
2023/09/30 04:18:58;;;;;;;;;;;;;;;11.98;100.00;102395.19;4908787;28;19926;-88
2023/09/30 04:21:44;;;;;;;;;;;;;;;11.97;100.00;102393.44;4925251;29;19939;-89
2023/09/30 04:24:29;;;;;;;;;;;;;;;11.95;100.00;102389.97;4904541;29;19981;-87
2023/09/30 04:27:16;;;;;;;;;;;;;;;11.92;100.00;102390.03;4913293;29;20017;-86
2023/09/30 04:30:08;;;;;;;;;;;;;;;11.90;100.00;102391.88;4926153;28;19974;-87
2023/09/30 04:32:54;;;;;;;;;;;;;;;11.87;100.00;102408.75;4929071;28;19930;-88
2023/09/30 04:35:43;;;;;;;;;;;;;;;11.86;100.00;102417.63;4916543;29;19931;-89
2023/09/30 04:38:30;;;;;;;;;;;;;;;11.82;100.00;102419.47;4925418;29;20470;-91
2023/09/30 04:41:16;;;;;;;;;;;;;;;11.82;100.00;102421.25;4928965;29;19938;-89
2023/09/30 04:44:01;;;;;;;;;;;;;;;11.81;100.00;102423.03;4929298;28;19938;-88
2023/09/30 04:46:47;;;;;;;;;;;;;;;11.79;100.00;102437.25;4934598;28;19956;-90
2023/09/30 04:49:33;;;;;;;;;;;;;;;11.75;100.00;102427.63;4931318;29;19926;-88
2023/09/30 04:52:18;;;;;;;;;;;;;;;11.71;100.00;102436.59;4930738;29;19935;-89
2023/09/30 04:55:04;;;;;;;;;;;;;;;11.70;100.00;102442.81;4936670;29;20555;-89
2023/09/30 04:57:50;;;;;;;;;;;;;;;11.65;100.00;102441.13;4932400;29;20070;-88
2023/09/30 05:00:36;;;;;;;;;;;;;;;11.62;100.00;102441.22;4937735;28;19931;-89
2023/09/30 05:03:23;;;;;;;;;;;;;;;11.61;100.00;102449.19;4921636;28;20021;-89
2023/09/30 05:06:09;;;;;;;;;;;;;;;11.57;100.00;102442.22;4934096;29;19958;-89
2023/09/30 05:08:55;;;;;;;;;;;;;;;11.53;100.00;102444.97;4934078;28;19935;-88
2023/09/30 05:11:41;;;;;;;;;;;;;;;11.48;100.00;102443.31;4923349;29;19931;-89
2023/09/30 05:14:28;;;;;;;;;;;;;;;11.43;100.00;102446.06;4933157;29;19965;-88
2023/09/30 05:17:25;;;;;;;;;;;;;;;11.39;100.00;102444.41;4924530;29;20333;-89
2023/09/30 05:20:56;;;;;;;;;;;;;;;11.36;100.00;102447.13;4915653;29;20374;-91
2023/09/30 05:24:32;;;;;;;;;;;;;;;11.36;100.00;102457.72;4955721;23;19935;-88
2023/09/30 05:27:18;;;;;;;;;;;;;;;11.34;100.00;102451.59;4961662;28;20380;-89
2023/09/30 05:30:09;;;;;;;;;;;;;;;11.31;100.00;102449.88;4962448;28;20024;-91
2023/09/30 05:32:55;;;;;;;;;;;;;;;11.31;100.00;102451.66;4949929;28;20683;-89
2023/09/30 05:35:41;;;;;;;;;;;;;;;11.27;100.00;102456.16;4938690;29;19941;-91
2023/09/30 05:38:27;;;;;;;;;;;;;;;11.24;100.00;102459.75;4944103;28;19926;-90
2023/09/30 05:41:20;;;;;;;;;;;;;;;11.24;100.00;102456.22;4941048;28;19953;-89
2023/09/30 05:47:32;;;;;;;;;;;;;;;11.19;100.00;102452.81;4977239;28;20665;-86
2023/09/30 05:50:23;;;;;;;;;;;;;;;11.16;100.00;102464.34;4973809;28;20408;-87
2023/09/30 05:53:32;;;;;;;;;;;;;;;11.15;100.00;102452.00;4975014;28;19917;-88
2023/09/30 05:56:15;;;;;;;;;;;;;;;11.14;100.00;102464.41;5018830;22;19933;-87
2023/09/30 05:59:00;;;;;;;;;;;;;;;11.11;100.00;102461.81;4993657;28;19944;-89
2023/09/30 06:01:46;;;;;;;;;;;;;;;11.07;100.00;102452.16;4985411;28;19925;-87
2023/09/30 06:04:33;;;;;;;;;;;;;;;11.07;100.00;102453.97;4969145;28;19930;-84
2023/09/30 06:07:22;;;;;;;;;;;;;;;11.07;100.00;102464.56;4979839;28;19922;-85
2023/09/30 06:10:09;;;;;;;;;;;;;;;11.07;100.00;102470.72;4969564;28;20015;-86
2023/09/30 06:12:55;;;;;;;;;;;;;;;11.08;100.00;102468.94;4979562;28;19996;-87
2023/09/30 06:15:41;;;;;;;;;;;;;;;11.09;100.00;102466.28;4980187;28;19930;-85
2023/09/30 06:18:26;;;;;;;;;;;;;;;11.11;100.00;102471.56;4967157;28;19936;-86
2023/09/30 06:21:17;;;;;;;;;;;;;;;11.12;100.00;102478.59;4973183;28;19929;-85
2023/09/30 06:24:03;;;;;;;;;;;;;;;11.13;100.00;102483.84;4980615;28;20003;-86
2023/09/30 06:26:49;;;;;;;;;;;;;;;11.18;100.00;102488.19;4969393;28;19950;-86
2023/09/30 06:29:34;;;;;;;;;;;;;;;11.21;100.00;102488.09;4989562;28;20286;-86
2023/09/30 06:32:20;;;;;;;;;;;;;;;11.26;100.00;102487.13;4960998;28;20084;-86
2023/09/30 06:35:10;;;;;;;;;;;;;;;11.29;100.00;102486.19;4994885;28;20143;-84
2023/09/30 06:37:55;;;;;;;;;;;;;;;11.34;100.00;102499.31;5002645;28;19930;-88
2023/09/30 06:40:42;;;;;;;;;;;;;;;11.38;100.00;102487.72;4976759;28;20372;-89
2023/09/30 06:43:31;;;;;;;;;;;;;;;11.44;100.00;102489.38;4974123;28;19964;-90
2023/09/30 06:46:17;;;;;;;;;;;;;;;11.50;100.00;102492.75;4985979;28;19933;-89
2023/09/30 06:49:03;;;;;;;;;;;;;;;11.53;100.00;102490.03;4968091;28;19980;-89
2023/09/30 06:51:48;;;;;;;;;;;;;;;11.59;100.00;102496.97;4970823;28;20008;-87
2023/09/30 06:54:34;;;;;;;;;;;;;;;11.64;100.00;102512.78;4995435;28;19937;-88
2023/09/30 06:57:20;;;;;;;;;;;;;;;11.71;100.00;102497.59;4970107;28;20026;-87
2023/09/30 07:00:09;;;;;;;;;;;;;;;11.76;100.00;102506.34;4966292;28;19933;-88
2023/09/30 07:02:54;;;;;;;;;;;;;;;11.82;100.00;102509.69;4977381;28;19936;-88
2023/09/30 07:05:50;;;;;;;;;;;;;;;11.89;100.00;102513.09;4980622;28;19929;-89
2023/09/30 07:08:36;;;;;;;;;;;;;;;11.96;100.00;102513.81;4966912;28;20035;-87
2023/09/30 07:11:33;;;;;;;;;;;;;;;12.01;100.00;102517.22;4969666;28;19965;-88
2023/09/30 07:14:19;;;;;;;;;;;;;;;12.09;100.00;102528.53;4963314;28;19925;-89
2023/09/30 07:17:05;;;;;;;;;;;;;;;12.17;100.00;102536.31;4979764;28;20708;-88
2023/09/30 07:19:51;;;;;;;;;;;;;;;12.24;100.00;102539.69;4971823;28;19922;-88
2023/09/30 07:22:37;;;;;;;;;;;;;;;12.32;100.00;102542.16;4979670;28;20044;-88
2023/09/30 07:25:23;;;;;;;;;;;;;;;12.40;100.00;102536.63;4985257;23;19948;-89
2023/09/30 07:28:11;;;;;;;;;;;;;;;12.49;100.00;102533.75;5004523;23;19934;-88
2023/09/30 07:30:57;;;;;;;;;;;;;;;12.57;100.00;102546.81;4981632;28;19987;-86
2023/09/30 07:33:44;;;;;;;;;;;;;;;12.65;100.00;102550.16;4987025;28;20175;-89
2023/09/30 07:36:30;;;;;;;;;;;;;;;12.72;100.00;102556.16;4981375;28;19926;-89
2023/09/30 07:39:17;;;;;;;;;;;;;;;12.81;100.00;102558.53;4988815;28;19969;-87
2023/09/30 07:42:05;;;;;;;;;;;;;;;12.89;100.00;102564.56;4979940;28;19929;-86
2023/09/30 07:44:51;;;;;;;;;;;;;;;12.97;100.00;102558.16;4994825;28;20035;-89
2023/09/30 07:47:37;;;;;;;;;;;;;;;13.08;100.00;102552.50;4981849;28;19955;-85
2023/09/30 07:50:23;;;;;;;;;;;;;;;13.17;100.00;102552.25;4991523;28;19936;-91
2023/09/30 07:53:08;;;;;;;;;;;;;;;13.26;100.00;102556.41;4987237;28;20374;-90
2023/09/30 07:55:54;;;;;;;;;;;;;;;13.33;100.00;102554.47;4977594;28;19930;-90
2023/09/30 07:58:40;;;;;;;;;;;;;;;13.42;100.00;102557.69;4984873;28;20450;-88
2023/09/30 08:01:26;;;;;;;;;;;;;;;13.51;100.00;102550.41;4978253;28;19930;-90
2023/09/30 08:04:11;;;;;;;;;;;;;;;13.60;100.00;102549.22;4994204;28;20452;-89
2023/09/30 08:06:57;;;;;;;;;;;;;;;13.66;100.00;102541.94;4987057;28;20296;-90
2023/09/30 08:09:43;;;;;;;;;;;;;;;13.77;100.00;102548.72;4977135;28;21283;-89
2023/09/30 08:12:29;;;;;;;;;;;;;;;13.84;100.00;102547.59;4993991;28;19930;-90
2023/09/30 08:15:15;;;;;;;;;;;;;;;13.91;100.00;102554.47;4992587;28;19931;-89
2023/09/30 08:18:02;;;;;;;;;;;;;;;13.99;100.00;102554.19;4994048;28;19936;-88
2023/09/30 08:20:49;;;;;;;;;;;;;;;14.06;100.00;102557.56;4984279;28;19933;-89
2023/09/30 08:23:34;;;;;;;;;;;;;;;14.13;100.00;102549.28;4978459;28;19925;-88
2023/09/30 08:26:20;;;;;;;;;;;;;;;14.21;100.00;102551.69;4979450;28;20009;-88
2023/09/30 08:29:06;;;;;;;;;;;;;;;14.31;100.00;102556.72;4991493;28;20371;-90
2023/09/30 08:31:55;;;;;;;;;;;;;;;14.40;100.00;102551.09;4988947;28;21873;-87
2023/09/30 08:34:40;;;;;;;;;;;;;;;14.48;100.00;102549.00;4994847;28;19926;-89
2023/09/30 08:37:26;;;;;;;;;;;;;;;14.56;100.00;102556.75;4989742;28;19929;-86
2023/09/30 08:40:12;;;;;;;;;;;;;;;14.64;100.00;102553.78;4990815;28;19932;-85
2023/09/30 08:42:57;;;;;;;;;;;;;;;14.71;100.00;102552.66;4989587;28;19933;-86
2023/09/30 08:45:44;;;;;;;;;;;;;;;14.79;100.00;102561.31;4992984;28;19934;-86
2023/09/30 08:48:29;;;;;;;;;;;;;;;14.87;100.00;102562.81;4993382;28;19930;-86
2023/09/30 08:51:15;;;;;;;;;;;;;;;14.92;100.00;102558.16;4992541;28;19929;-88
2023/09/30 08:54:03;;;;;;;;;;;;;;;14.99;100.00;102567.66;4988368;28;19933;-87
2023/09/30 08:56:49;;;;;;;;;;;;;;;15.05;100.00;102562.13;4983955;28;19951;-88
2023/09/30 08:59:35;;;;;;;;;;;;;;;15.14;100.00;102558.25;4992857;28;19965;-86
2023/09/30 09:02:21;;;;;;;;;;;;;;;15.24;100.00;102561.44;4992721;28;19929;-87
2023/09/30 09:05:07;;;;;;;;;;;;;;;15.32;100.00;102555.81;4984759;28;19930;-88
2023/09/30 09:07:53;;;;;;;;;;;;;;;15.38;100.00;102552.91;4998950;28;20141;-87
2023/09/30 09:10:55;;;;;;;;;;;;;;;15.49;100.00;102563.16;4992155;28;19933;-87
2023/09/30 09:13:45;;;;;;;;;;;;;;;15.60;100.00;102573.41;4993409;28;19930;-88
2023/09/30 09:16:31;;;;;;;;;;;;;;;15.70;100.00;102577.44;4995028;28;19951;-87
2023/09/30 09:19:17;;;;;;;;;;;;;;;15.80;100.00;102580.63;4996162;28;19922;-87
2023/09/30 09:22:06;;;;;;;;;;;;;;;15.84;100.00;102582.25;4994001;28;19934;-87
2023/09/30 09:24:52;;;;;;;;;;;;;;;15.93;100.00;102580.16;4985941;28;20455;-88
2023/09/30 09:27:38;;;;;;;;;;;;;;;16.02;100.00;102599.34;4990463;28;19976;-87
2023/09/30 09:30:26;;;;;;;;;;;;;;;16.10;100.00;102591.03;4980084;28;19930;-88
2023/09/30 09:33:12;;;;;;;;;;;;;;;16.22;100.00;102588.78;4996446;28;20569;-88
2023/09/30 09:36:00;;;;;;;;;;;;;;;16.32;100.00;102589.25;4995703;28;19941;-88
2023/09/30 09:38:48;;;;;;;;;;;;;;;16.40;100.00;102579.97;4997956;28;19930;-85
2023/09/30 09:41:39;;;;;;;;;;;;;;;16.45;100.00;102584.28;4994431;28;19925;-86
2023/09/30 09:44:27;;;;;;;;;;;;;;;16.49;100.00;102585.88;4992379;28;20060;-87
2023/09/30 09:47:13;;;;;;;;;;;;;;;16.56;100.00;102587.34;4983719;28;19929;-85
2023/09/30 09:49:59;;;;;;;;;;;;;;;16.64;100.00;102587.91;4986044;28;20412;-86
2023/09/30 09:52:46;;;;;;;;;;;;;;;16.79;100.00;102585.47;4994141;28;19928;-89
2023/09/30 09:55:32;;;;;;;;;;;;;;;16.90;100.00;102580.53;4995428;28;20335;-89
2023/09/30 09:58:18;;;;;;;;;;;;;;;16.94;100.00;102590.13;4987840;28;19934;-87
2023/09/30 10:01:05;;;;;;;;;;;;;;;16.92;100.00;102600.03;4987145;28;20683;-86
2023/09/30 10:03:51;;;;;;;;;;;;;;;16.84;100.00;102602.19;4996078;28;20292;-88
2023/09/30 10:06:40;;;;;;;;;;;;;;;16.74;100.00;102606.19;4996364;28;19929;-89
2023/09/30 10:09:28;;;;;;;;;;;;;;;16.66;100.00;102615.44;4986066;28;19925;-90
2023/09/30 10:12:16;;;;;;;;;;;;;;;16.52;100.00;102615.16;4984269;28;19930;-82
2023/09/30 10:15:22;;;;;;;;;;;;;;;16.35;100.00;102624.75;4991879;28;19929;-89
2023/09/30 10:18:11;;;;;;;;;;;;;;;16.17;100.00;102614.84;4992558;28;19934;-89
2023/09/30 10:20:57;;;;;;;;;;;;;;;16.00;100.00;102624.38;4989751;28;20613;-88
2023/09/30 10:23:42;;;;;;;;;;;;;;;15.89;100.00;102627.47;4976283;28;19928;-87
2023/09/30 10:26:28;;;;;;;;;;;;;;;15.83;100.00;102617.03;4990125;28;19934;-88
2023/09/30 10:29:20;;;;;;;;;;;;;;;15.82;100.00;102629.53;4992013;28;19932;-89
2023/09/30 10:32:05;;;;;;;;;;;;;;;15.84;100.00;102627.66;4994004;28;20443;-88
2023/09/30 10:34:52;;;;;;;;;;;;;;;15.89;100.00;102625.69;4982910;28;20496;-88
2023/09/30 10:37:38;;;;;;;;;;;;;;;15.94;100.00;102620.19;4991961;28;19988;-88
2023/09/30 10:40:28;;;;;;;;;;;;;;;15.99;100.00;102619.97;4994493;28;19936;-89
2023/09/30 10:43:30;;;;;;;;;;;;;;;16.00;100.00;102617.25;4991140;28;19936;-86
2023/09/30 10:46:29;;;;;;;;;;;;;;;16.02;100.00;102609.19;4997134;28;19929;-90
2023/09/30 10:49:26;;;;;;;;;;;;;;;16.06;100.00;102604.59;4995884;28;19930;-89
2023/09/30 10:52:11;;;;;;;;;;;;;;;16.10;100.00;102600.84;4989906;28;19936;-86
2023/09/30 10:55:05;;;;;;;;;;;;;;;16.19;100.00;102616.50;4963992;28;19962;-89
2023/09/30 10:57:51;;;;;;;;;;;;;;;16.27;100.00;102613.50;4975312;28;19999;-88
2023/09/30 11:00:38;;;;;;;;;;;;;;;16.33;100.00;102597.22;4980987;28;19933;-87
2023/09/30 11:03:23;;;;;;;;;;;;;;;16.38;100.00;102595.22;4978848;28;19925;-86
2023/09/30 11:06:16;;;;;;;;;;;;;;;16.45;100.00;102587.81;4990561;28;19934;-89
2023/09/30 11:09:08;;;;;;;;;;;;;;;16.48;100.00;102587.69;4999010;28;20403;-89
2023/09/30 11:11:54;;;;;;;;;;;;;;;16.53;100.00;102591.03;4997027;28;19934;-87
2023/09/30 11:14:42;;;;;;;;;;;;;;;16.54;100.00;102584.75;4994309;28;19929;-88
2023/09/30 11:17:29;;;;;;;;;;;;;;;16.58;100.00;102585.50;4983581;28;19930;-86
2023/09/30 11:20:16;;;;;;;;;;;;;;;16.63;100.00;102586.16;4989012;28;20344;-88
2023/09/30 11:23:01;;;;;;;;;;;;;;;16.69;100.00;102593.88;4984145;28;20514;-82
2023/09/30 11:25:47;;;;;;;;;;;;;;;16.71;100.00;102585.81;4994019;28;20486;-84
2023/09/30 11:28:37;;;;;;;;;;;;;;;16.72;100.00;102586.69;4978030;28;19926;-85
2023/09/30 11:31:23;;;;;;;;;;;;;;;16.75;100.00;102581.19;4984372;28;20389;-88
2023/09/30 11:34:09;;;;;;;;;;;;;;;16.77;100.00;102579.34;4989487;28;19940;-85
2023/09/30 11:36:56;;;;;;;;;;;;;;;16.76;100.00;102582.94;4988684;28;20486;-87
2023/09/30 11:39:42;;;;;;;;;;;;;;;16.77;100.00;102574.00;4989873;28;19934;-85
2023/09/30 11:42:28;;;;;;;;;;;;;;;16.77;100.00;102576.66;4988006;28;20040;-90
2023/09/30 11:45:20;;;;;;;;;;;;;;;16.79;100.00;102580.13;4987816;28;19932;-87
2023/09/30 11:48:28;;;;;;;;;;;;;;;16.81;100.00;102580.91;4974309;28;20039;-86
2023/09/30 11:51:13;;;;;;;;;;;;;;;16.81;100.00;102592.50;4988667;28;20016;-88
2023/09/30 11:54:00;;;;;;;;;;;;;;;16.82;100.00;102586.22;4988147;28;19929;-85
2023/09/30 11:56:47;;;;;;;;;;;;;;;16.84;100.00;102578.13;4986501;28;19940;-86
2023/09/30 11:59:33;;;;;;;;;;;;;;;16.86;100.00;102578.91;4995001;28;19929;-85
2023/09/30 12:02:19;;;;;;;;;;;;;;;16.91;100.00;102576.03;4995596;28;21105;-86
2023/09/30 12:05:11;;;;;;;;;;;;;;;16.95;100.00;102578.50;4987337;28;20027;-86
2023/09/30 12:07:56;;;;;;;;;;;;;;;16.97;100.00;102579.31;4990149;28;19952;-85
2023/09/30 12:10:42;;;;;;;;;;;;;;;17.01;100.00;102584.50;4993856;28;19933;-84
2023/09/30 12:13:27;;;;;;;;;;;;;;;17.05;100.00;102576.31;4977706;28;20425;-89
2023/09/30 12:16:16;;;;;;;;;;;;;;;17.10;100.00;102586.78;4991125;28;19948;-87
2023/09/30 12:19:01;;;;;;;;;;;;;;;17.10;100.00;102581.44;4988077;28;19983;-89
2023/09/30 12:21:48;;;;;;;;;;;;;;;17.13;100.00;102583.09;4984423;28;19926;-91
2023/09/30 12:24:33;;;;;;;;;;;;;;;17.16;100.00;102575.81;4980334;28;19961;-88
2023/09/30 12:27:19;;;;;;;;;;;;;;;17.20;100.00;102566.72;4995021;28;20029;-90
2023/09/30 12:30:08;;;;;;;;;;;;;;;17.28;100.00;102568.16;4984172;28;20330;-89
2023/09/30 12:32:54;;;;;;;;;;;;;;;17.36;100.00;102569.53;4981832;28;19926;-89
2023/09/30 12:35:43;;;;;;;;;;;;;;;17.40;100.00;102562.22;4976553;28;19929;-85
2023/09/30 12:38:29;;;;;;;;;;;;;;;17.45;100.00;102560.22;4992195;28;19961;-87
2023/09/30 12:41:15;;;;;;;;;;;;;;;17.52;100.00;102563.44;4989906;28;20031;-86
2023/09/30 12:44:01;;;;;;;;;;;;;;;17.58;100.00;102571.19;5004991;28;20306;-89
2023/09/30 12:46:47;;;;;;;;;;;;;;;17.59;100.00;102567.56;4978077;28;19975;-85
2023/09/30 12:49:32;;;;;;;;;;;;;;;17.62;100.00;102567.44;4990332;28;19928;-87
2023/09/30 12:52:21;;;;;;;;;;;;;;;17.66;100.00;102568.16;4992933;28;19937;-89
2023/09/30 12:55:06;;;;;;;;;;;;;;;17.69;100.00;102568.00;4991324;28;19937;-86
2023/09/30 12:57:53;;;;;;;;;;;;;;;17.70;100.00;102569.72;4988238;28;20022;-89
2023/09/30 13:00:38;;;;;;;;;;;;;;;17.71;100.00;102566.09;4991543;28;19932;-85
2023/09/30 13:03:24;;;;;;;;;;;;;;;17.70;100.00;102559.00;4996401;28;19983;-87
2023/09/30 13:06:13;;;;;;;;;;;;;;;17.71;100.00;102555.38;4996607;28;19930;-89
2023/09/30 13:09:01;;;;;;;;;;;;;;;17.71;100.00;102555.38;4999974;28;19926;-91
2023/09/30 13:11:47;;;;;;;;;;;;;;;17.71;100.00;102551.88;4996946;28;19929;-90
2023/09/30 13:14:33;;;;;;;;;;;;;;;17.69;100.00;102541.22;4989519;28;19945;-85
2023/09/30 13:17:18;;;;;;;;;;;;;;;17.67;100.00;102531.50;4978924;28;19976;-86
2023/09/30 13:20:05;;;;;;;;;;;;;;;17.67;100.00;102532.41;4987931;28;19933;-87
2023/09/30 13:22:50;;;;;;;;;;;;;;;17.69;100.00;102519.78;4991205;28;19945;-86
2023/09/30 13:25:36;;;;;;;;;;;;;;;17.69;100.00;102513.59;4991270;28;19948;-86
2023/09/30 13:28:22;;;;;;;;;;;;;;;17.72;100.00;102524.13;4990614;28;20415;-85
2023/09/30 13:31:08;;;;;;;;;;;;;;;17.72;100.00;102538.41;4989663;28;19925;-86
2023/09/30 13:33:53;;;;;;;;;;;;;;;17.79;100.00;102541.63;4992879;28;19929;-87
2023/09/30 13:36:39;;;;;;;;;;;;;;;17.83;100.00;102540.56;4991178;28;19936;-89
2023/09/30 13:39:25;;;;;;;;;;;;;;;17.83;100.00;102527.16;4978708;28;21902;-85
2023/09/30 13:42:11;;;;;;;;;;;;;;;17.82;100.00;102529.91;4994712;28;19936;-90
2023/09/30 13:45:00;;;;;;;;;;;;;;;17.84;100.00;102533.38;4989190;28;19965;-91
2023/09/30 13:47:46;;;;;;;;;;;;;;;17.85;100.00;102514.53;4992389;28;19940;-86
2023/09/30 13:50:31;;;;;;;;;;;;;;;17.87;100.00;102526.03;4991015;28;20446;-87
2023/09/30 13:53:20;;;;;;;;;;;;;;;17.85;100.00;102540.44;4993354;28;20419;-88
2023/09/30 13:56:06;;;;;;;;;;;;;;;17.82;100.00;102546.81;4993255;28;20450;-87
2023/09/30 13:58:52;;;;;;;;;;;;;;;17.82;100.00;102524.53;4993358;28;20060;-84
2023/09/30 14:01:38;;;;;;;;;;;;;;;17.80;100.00;102523.75;4995853;28;19930;-87
2023/09/30 14:04:26;;;;;;;;;;;;;;;17.80;100.00;102521.09;4992955;28;19934;-87
2023/09/30 14:07:12;;;;;;;;;;;;;;;17.82;100.00;102524.53;4993119;28;20000;-86
2023/09/30 14:10:05;;;;;;;;;;;;;;;17.83;100.00;102529.84;4992276;28;19925;-86
2023/09/30 14:12:51;;;;;;;;;;;;;;;17.87;100.00;102522.50;4992805;28;19933;-87
2023/09/30 14:15:40;;;;;;;;;;;;;;;17.90;100.00;102519.66;4987336;28;20004;-86